createdAt,value
2023-03-18T00:01:53.068Z,6.95
2023-03-18T00:04:19.558Z,5.90
2023-03-18T00:06:46.059Z,4.78
2023-03-18T00:09:13.888Z,5.57
2023-03-18T00:11:40.620Z,6.88
2023-03-18T00:14:08.681Z,5.82
2023-03-18T00:16:38.459Z,6.18
2023-03-18T00:19:04.929Z,6.03
2023-03-18T00:21:31.864Z,5.47
2023-03-18T00:23:58.810Z,6.47
2023-03-18T00:26:27.133Z,7.13
2023-03-18T00:28:56.510Z,7.28
2023-03-18T00:31:23.229Z,5.45
2023-03-18T00:33:50.393Z,6.90
2023-03-18T00:36:18.463Z,5.65
2023-03-18T00:38:46.433Z,5.57
2023-03-18T00:41:15.916Z,4.78
2023-03-18T00:43:49.437Z,6.05
2023-03-18T00:46:18.060Z,5.87
2023-03-18T00:48:45.086Z,6.30
2023-03-18T00:51:14.180Z,6.90
2023-03-18T00:53:48.558Z,6.28
2023-03-18T00:56:16.469Z,6.15
2023-03-18T00:58:42.994Z,3.70
2023-03-18T01:01:09.714Z,7.75
2023-03-18T01:03:36.578Z,6.68
2023-03-18T01:06:04.216Z,7.25
2023-03-18T01:08:31.082Z,5.57
2023-03-18T01:10:57.913Z,7.60
2023-03-18T01:13:25.842Z,9.80
2023-03-18T01:15:52.920Z,7.60
2023-03-18T01:18:19.430Z,6.68
2023-03-18T01:20:45.912Z,7.05
2023-03-18T01:23:13.285Z,6.53
2023-03-18T01:25:40.065Z,6.32
2023-03-18T01:28:07.093Z,5.38
2023-03-18T01:30:35.454Z,5.78
2023-03-18T01:33:04.931Z,5.93
2023-03-18T01:35:32.976Z,6.43
2023-03-18T01:40:28.458Z,6.72
2023-03-18T01:43:20.744Z,4.53
2023-03-18T01:45:58.869Z,5.22
2023-03-18T01:48:28.904Z,5.83
2023-03-18T01:50:59.418Z,6.28
2023-03-18T01:53:29.758Z,6.55
2023-03-18T01:55:57.744Z,5.15
2023-03-18T01:58:32.823Z,6.85
2023-03-18T02:01:22.542Z,4.80
2023-03-18T02:03:50.392Z,6.03
2023-03-18T02:06:17.043Z,6.13
2023-03-18T02:08:43.505Z,5.53
2023-03-18T02:11:10.354Z,6.32
2023-03-18T02:13:39.700Z,6.63
2023-03-18T02:16:10.983Z,7.05
2023-03-18T02:18:42.462Z,6.63
2023-03-18T02:21:53.666Z,6.35
2023-03-18T02:24:22.750Z,5.50
2023-03-18T02:26:57.846Z,5.73
2023-03-18T02:29:25.865Z,6.07
2023-03-18T02:31:52.660Z,5.28
2023-03-18T02:34:19.692Z,6.20
2023-03-18T02:36:46.288Z,5.78
2023-03-18T02:39:15.077Z,5.97
2023-03-18T02:41:42.323Z,7.13
2023-03-18T02:44:12.791Z,6.20
2023-03-18T02:46:55.268Z,6.65
2023-03-18T02:49:23.470Z,5.25
2023-03-18T02:51:50.518Z,6.90
2023-03-18T02:54:26.906Z,4.82
2023-03-18T02:56:53.726Z,5.97
2023-03-18T02:59:20.980Z,7.15
2023-03-18T03:01:49.334Z,6.10
2023-03-18T03:04:16.707Z,7.23
2023-03-18T03:06:44.626Z,5.28
2023-03-18T03:09:14.149Z,5.70
2023-03-18T03:11:41.328Z,6.75
2023-03-18T03:14:09.379Z,5.47
2023-03-18T03:16:36.263Z,7.27
2023-03-18T03:19:02.857Z,4.90
2023-03-18T03:21:29.598Z,5.70
2023-03-18T03:23:56.310Z,5.10
2023-03-18T03:26:22.845Z,5.90
2023-03-18T03:28:49.464Z,5.90
2023-03-18T03:31:16.964Z,6.40
2023-03-18T03:33:44.293Z,6.10
2023-03-18T03:36:12.746Z,6.10
2023-03-18T03:38:39.629Z,6.07
2023-03-18T03:41:06.224Z,4.73
2023-03-18T03:43:33.968Z,6.47
2023-03-18T03:46:00.788Z,4.75
2023-03-18T03:48:27.949Z,5.57
2023-03-18T03:50:54.551Z,7.13
2023-03-18T03:53:21.234Z,6.50
2023-03-18T03:55:47.736Z,6.75
2023-03-18T03:58:14.189Z,3.42
2023-03-18T04:00:41.003Z,7.18
2023-03-18T04:03:07.485Z,5.55
2023-03-18T04:05:33.934Z,5.50
2023-03-18T04:08:00.718Z,7.25
2023-03-18T04:10:28.022Z,5.72
2023-03-18T04:12:54.490Z,6.68
2023-03-18T04:15:22.083Z,7.25
2023-03-18T04:17:51.604Z,3.80
2023-03-18T04:20:18.388Z,7.10
2023-03-18T04:22:45.523Z,6.18
2023-03-18T04:25:14.714Z,6.85
2023-03-18T04:27:41.708Z,7.80
2023-03-18T04:30:09.561Z,5.67
2023-03-18T04:32:36.220Z,4.57
2023-03-18T04:35:03.381Z,7.72
2023-03-18T04:37:30.023Z,7.05
2023-03-18T04:39:56.613Z,7.55
2023-03-18T04:42:23.053Z,7.30
2023-03-18T04:44:49.627Z,5.40
2023-03-18T04:47:16.093Z,6.28
2023-03-18T04:49:42.649Z,5.82
2023-03-18T04:52:09.293Z,7.65
2023-03-18T04:54:37.281Z,5.03
2023-03-18T04:57:05.846Z,6.22
2023-03-18T04:59:32.464Z,5.93
2023-03-18T05:01:59.626Z,6.97
2023-03-18T05:04:26.292Z,6.60
2023-03-18T05:06:53.266Z,5.07
2023-03-18T05:09:19.798Z,4.57
2023-03-18T05:11:46.301Z,5.15
2023-03-18T05:14:13.763Z,6.75
2023-03-18T05:16:40.295Z,5.95
2023-03-18T05:19:06.863Z,6.50
2023-03-18T05:21:33.357Z,6.68
2023-03-18T05:24:00.079Z,6.30
2023-03-18T05:26:26.622Z,7.47
2023-03-18T05:28:53.761Z,6.40
2023-03-18T05:31:20.494Z,7.23
2023-03-18T05:33:47.814Z,5.93
2023-03-18T05:36:14.642Z,7.28
2023-03-18T05:38:41.189Z,6.28
2023-03-18T05:41:08.129Z,5.45
2023-03-18T05:43:34.642Z,6.37
2023-03-18T05:46:01.275Z,6.82
2023-03-18T05:48:27.782Z,5.30
2023-03-18T05:50:54.304Z,5.70
2023-03-18T05:53:21.033Z,6.47
2023-03-18T05:55:48.737Z,6.47
2023-03-18T05:58:15.235Z,5.70
2023-03-18T06:00:41.788Z,5.53
2023-03-18T06:03:08.897Z,5.55
2023-03-18T06:05:35.961Z,5.85
2023-03-18T06:08:03.088Z,6.53
2023-03-18T06:10:30.048Z,5.05
2023-03-18T06:12:56.864Z,5.50
2023-03-18T06:15:24.437Z,6.03
2023-03-18T06:17:51.537Z,5.40
2023-03-18T06:20:19.478Z,6.13
2023-03-18T06:22:49.480Z,5.90
2023-03-18T06:25:20.378Z,6.93
2023-03-18T06:27:47.880Z,5.20
2023-03-18T06:30:15.322Z,6.07
2023-03-18T06:32:42.048Z,6.97
2023-03-18T06:35:10.508Z,6.10
2023-03-18T06:37:38.160Z,5.55
2023-03-18T06:40:07.452Z,6.80
2023-03-18T06:42:34.420Z,5.47
2023-03-18T06:45:01.478Z,7.67
2023-03-18T06:47:28.576Z,6.88
2023-03-18T06:49:55.944Z,5.30
2023-03-18T06:52:23.353Z,6.18
2023-03-18T06:54:50.547Z,4.97
2023-03-18T06:57:17.262Z,6.77
2023-03-18T06:59:43.782Z,5.78
2023-03-18T07:02:10.698Z,5.45
2023-03-18T07:04:37.250Z,4.00
2023-03-18T07:07:07.887Z,5.32
2023-03-18T07:09:34.578Z,6.17
2023-03-18T07:12:01.876Z,6.15
2023-03-18T07:14:28.831Z,6.78
2023-03-18T07:16:57.141Z,4.32
2023-03-18T07:19:23.945Z,6.60
2023-03-18T07:21:50.961Z,6.60
2023-03-18T07:24:19.480Z,3.80
2023-03-18T07:26:45.954Z,7.30
2023-03-18T07:29:12.442Z,5.90
2023-03-18T07:31:38.990Z,5.88
2023-03-18T07:34:05.703Z,5.30
2023-03-18T07:36:32.185Z,6.13
2023-03-18T07:39:00.076Z,5.95
2023-03-18T07:41:26.705Z,5.82
2023-03-18T07:43:53.646Z,4.18
2023-03-18T07:46:20.237Z,4.97
2023-03-18T07:48:46.843Z,6.03
2023-03-18T07:51:15.091Z,6.72
2023-03-18T07:53:42.533Z,5.80
2023-03-18T07:56:09.899Z,4.28
2023-03-18T07:58:37.305Z,4.87
2023-03-18T08:01:04.098Z,6.05
2023-03-18T08:03:31.120Z,6.50
2023-03-18T08:05:57.810Z,6.05
2023-03-18T08:08:24.929Z,4.45
2023-03-18T08:10:52.331Z,5.33
2023-03-18T08:13:18.782Z,5.97
2023-03-18T08:15:45.597Z,5.07
2023-03-18T08:18:12.088Z,5.47
2023-03-18T08:20:38.782Z,5.07
2023-03-18T08:23:05.338Z,6.37
2023-03-18T08:25:32.566Z,7.60
2023-03-18T08:27:59.616Z,5.85
2023-03-18T08:30:28.747Z,4.72
2023-03-18T08:32:56.073Z,6.18
2023-03-18T08:35:23.434Z,6.40
2023-03-18T08:37:51.164Z,4.82
2023-03-18T08:40:18.219Z,3.22
2023-03-18T08:42:45.243Z,6.32
2023-03-18T08:45:12.495Z,5.43
2023-03-18T08:47:39.617Z,5.73
2023-03-18T08:50:06.249Z,8.20
2023-03-18T08:52:32.744Z,7.25
2023-03-18T08:54:59.661Z,6.50
2023-03-18T08:57:27.890Z,4.75
2023-03-18T08:59:54.448Z,8.27
2023-03-18T09:02:21.576Z,5.22
2023-03-18T09:04:48.272Z,5.25
2023-03-18T09:07:16.382Z,5.80
2023-03-18T09:09:44.642Z,6.60
2023-03-18T09:12:12.646Z,6.20
2023-03-18T09:14:40.437Z,7.15
2023-03-18T09:17:07.113Z,6.18
2023-03-18T09:19:33.750Z,5.68
2023-03-18T09:22:00.451Z,5.85
2023-03-18T09:24:27.082Z,6.53
2023-03-18T09:26:53.553Z,6.53
2023-03-18T09:29:20.633Z,5.65
2023-03-18T09:31:47.278Z,5.40
2023-03-18T09:34:14.492Z,6.25
2023-03-18T09:36:42.198Z,4.60
2023-03-18T09:39:10.021Z,7.68
2023-03-18T09:42:22.676Z,6.07
2023-03-18T09:44:55.592Z,6.10
2023-03-18T09:47:59.899Z,6.13
2023-03-18T09:50:39.492Z,4.80
2023-03-18T09:53:14.450Z,5.68
2023-03-18T09:55:50.008Z,5.82
2023-03-18T09:58:24.479Z,5.15
2023-03-18T10:00:56.222Z,5.95
2023-03-18T10:03:34.898Z,5.53
2023-03-18T10:06:20.626Z,3.88
2023-03-18T10:08:56.359Z,5.82
2023-03-18T10:11:27.464Z,5.95
2023-03-18T10:13:59.986Z,6.53
2023-03-18T10:16:31.114Z,5.83
2023-03-18T10:18:57.749Z,5.80
2023-03-18T10:21:54.738Z,5.05
2023-03-18T10:24:37.926Z,6.45
2023-03-18T10:27:38.370Z,6.25
2023-03-18T10:30:27.457Z,6.10
2023-03-18T10:33:00.222Z,6.03
2023-03-18T10:35:31.760Z,7.47
2023-03-18T10:38:19.044Z,7.82
2023-03-18T10:40:47.750Z,6.22
2023-03-18T10:43:19.519Z,6.43
2023-03-18T10:45:47.389Z,6.07
2023-03-18T10:48:22.175Z,4.55
2023-03-18T10:50:55.863Z,5.53
2023-03-18T10:53:29.956Z,5.90
2023-03-18T10:55:59.775Z,6.53
2023-03-18T10:58:28.081Z,5.05
2023-03-18T11:00:55.176Z,3.58
2023-03-18T11:03:24.954Z,6.05
2023-03-18T11:05:52.126Z,5.57
2023-03-18T11:08:34.472Z,4.70
2023-03-18T11:11:33.461Z,4.82
2023-03-18T11:14:04.261Z,3.95
2023-03-18T11:16:38.390Z,4.50
2023-03-18T11:19:18.931Z,6.50
2023-03-18T11:21:46.054Z,6.37
2023-03-18T11:24:36.162Z,4.88
2023-03-18T11:27:02.884Z,5.60
2023-03-18T11:29:34.455Z,5.80
2023-03-18T11:32:01.866Z,5.75
2023-03-18T11:34:30.763Z,6.17
2023-03-18T11:37:05.806Z,6.07
2023-03-18T11:39:37.455Z,5.68
2023-03-18T11:42:17.625Z,6.40
2023-03-18T11:44:44.064Z,6.15
2023-03-18T11:47:19.343Z,5.40
2023-03-18T11:49:45.949Z,5.45
2023-03-18T11:52:15.183Z,5.13
2023-03-18T11:54:45.101Z,7.47
2023-03-18T11:57:21.427Z,5.60
2023-03-18T12:00:07.281Z,7.67
2023-03-18T12:02:52.451Z,5.60
2023-03-18T12:05:40.882Z,5.75
2023-03-18T12:08:23.653Z,7.07
2023-03-18T12:11:22.122Z,4.10
2023-03-18T12:14:28.399Z,6.67
2023-03-18T12:17:01.932Z,8.73
2023-03-18T12:19:46.939Z,7.88
2023-03-18T12:22:32.237Z,7.60
2023-03-18T12:25:07.638Z,7.13
2023-03-18T12:27:42.811Z,7.27
2023-03-18T12:30:11.640Z,6.30
2023-03-18T12:32:57.117Z,6.57
2023-03-18T12:35:33.098Z,5.40
2023-03-18T12:38:25.913Z,7.15
2023-03-18T12:41:02.188Z,6.77
2023-03-18T12:43:58.458Z,5.05
2023-03-18T12:46:40.178Z,5.78
2023-03-18T12:49:33.993Z,5.22
2023-03-18T12:52:07.723Z,6.13
2023-03-18T12:54:40.512Z,5.13
2023-03-18T12:57:12.797Z,6.63
2023-03-18T12:59:50.738Z,6.20
2023-03-18T13:02:57.090Z,7.22
2023-03-18T13:05:30.071Z,6.05
2023-03-18T13:08:18.727Z,7.00
2023-03-18T13:10:49.148Z,7.03
2023-03-18T13:13:16.299Z,6.63
2023-03-18T13:15:49.504Z,5.05
2023-03-18T13:18:24.171Z,6.10
2023-03-18T13:20:51.923Z,6.50
2023-03-18T13:23:27.494Z,6.97
2023-03-18T13:26:00.460Z,5.90
2023-03-18T13:28:29.269Z,7.80
2023-03-18T13:31:17.693Z,6.95
2023-03-18T13:34:26.517Z,5.60
2023-03-18T13:37:08.890Z,5.47
2023-03-18T13:40:04.001Z,7.10
2023-03-18T13:42:36.123Z,6.00
2023-03-18T13:45:34.216Z,5.70
2023-03-18T13:48:24.692Z,6.40
2023-03-18T13:50:51.615Z,5.75
2023-03-18T13:53:28.558Z,5.30
2023-03-18T13:55:57.829Z,6.43
2023-03-18T13:58:45.405Z,6.60
2023-03-18T14:01:15.722Z,5.20
2023-03-18T14:03:42.383Z,5.70
2023-03-18T14:06:08.911Z,5.30
2023-03-18T14:08:45.700Z,6.25
2023-03-18T14:11:23.018Z,5.43
2023-03-18T14:13:54.539Z,7.67
2023-03-18T14:16:37.673Z,8.07
2023-03-18T14:19:32.671Z,6.13
2023-03-18T14:22:13.744Z,5.65
2023-03-18T14:25:18.689Z,5.85
2023-03-18T14:27:55.014Z,6.90
2023-03-18T14:30:28.334Z,5.40
2023-03-18T14:33:01.087Z,7.22
2023-03-18T14:35:29.852Z,7.13
2023-03-18T14:37:59.084Z,6.72
2023-03-18T14:40:25.716Z,6.23
2023-03-18T14:43:11.205Z,6.55
2023-03-18T14:45:41.534Z,7.40
2023-03-18T14:48:18.841Z,6.88
2023-03-18T14:50:47.872Z,7.70
2023-03-18T14:53:37.729Z,7.83
2023-03-18T14:56:05.574Z,7.47
2023-03-18T14:58:34.150Z,8.15
2023-03-18T15:01:09.552Z,7.68
2023-03-18T15:03:39.007Z,6.57
2023-03-18T15:06:07.459Z,8.13
2023-03-18T15:08:47.383Z,8.02
2023-03-18T15:11:16.311Z,8.05
2023-03-18T15:13:42.987Z,8.55
2023-03-18T15:16:11.795Z,8.43
2023-03-18T15:18:39.850Z,6.80
2023-03-18T15:21:18.256Z,7.70
2023-03-18T15:23:51.103Z,7.82
2023-03-18T15:26:27.888Z,8.90
2023-03-18T15:28:56.782Z,8.35
2023-03-18T15:31:39.294Z,7.33
2023-03-18T15:34:20.027Z,6.65
2023-03-18T15:36:55.578Z,7.22
2023-03-18T15:39:42.328Z,7.50
2023-03-18T15:42:17.847Z,8.60
2023-03-18T15:44:46.578Z,9.10
2023-03-18T15:47:19.215Z,8.88
2023-03-18T15:49:51.520Z,8.90
2023-03-18T15:52:26.058Z,8.32
2023-03-18T15:54:53.467Z,8.48
2023-03-18T15:57:32.676Z,7.43
2023-03-18T15:59:59.192Z,8.82
2023-03-18T16:02:26.412Z,7.00
2023-03-18T16:04:53.641Z,7.03
2023-03-18T16:07:28.207Z,8.65
2023-03-18T16:09:55.219Z,7.97
2023-03-18T16:12:25.007Z,7.05
2023-03-18T16:14:52.049Z,6.30
2023-03-18T16:17:22.254Z,6.55
2023-03-18T16:19:53.768Z,8.32
2023-03-18T16:22:20.323Z,8.43
2023-03-18T16:27:42.017Z,10.25
2023-03-18T16:30:29.561Z,8.55
2023-03-18T16:32:57.222Z,9.40
2023-03-18T16:35:26.020Z,9.77
2023-03-18T16:37:53.338Z,9.88
2023-03-18T16:40:28.003Z,9.15
2023-03-18T16:42:55.411Z,9.35
2023-03-18T16:45:29.946Z,9.68
2023-03-18T16:47:59.834Z,10.30
2023-03-18T16:50:33.205Z,7.63
2023-03-18T16:53:29.230Z,10.15
2023-03-18T16:55:59.749Z,8.77
2023-03-18T16:58:29.840Z,9.55
2023-03-18T17:00:56.983Z,10.93
2023-03-18T17:03:23.559Z,10.55
2023-03-18T17:05:50.653Z,10.43
2023-03-18T17:08:18.299Z,9.43
2023-03-18T17:10:45.823Z,9.25
2023-03-18T17:13:45.167Z,9.47
2023-03-18T17:16:19.090Z,10.18
2023-03-18T17:19:07.443Z,10.50
2023-03-18T17:22:06.197Z,9.75
2023-03-18T17:25:08.883Z,10.90
2023-03-18T17:28:06.923Z,10.03
2023-03-18T17:30:35.554Z,10.80
2023-03-18T17:33:03.562Z,11.30
2023-03-18T17:35:30.792Z,10.90
2023-03-18T17:37:57.356Z,11.10
2023-03-18T17:40:26.238Z,10.60
2023-03-18T17:42:52.803Z,11.40
2023-03-18T17:45:28.881Z,11.20
2023-03-18T17:48:12.292Z,12.23
2023-03-18T17:50:38.896Z,11.55
2023-03-18T17:53:05.378Z,11.07
2023-03-18T17:55:32.343Z,12.20
2023-03-18T17:57:59.065Z,10.73
2023-03-18T18:00:26.378Z,10.65
2023-03-18T18:02:58.094Z,12.05
2023-03-18T18:05:24.696Z,12.03
2023-03-18T18:07:51.410Z,11.43
2023-03-18T18:10:20.163Z,11.43
2023-03-18T18:12:49.626Z,11.55
2023-03-18T18:15:26.399Z,12.63
2023-03-18T18:17:53.674Z,11.93
2023-03-18T18:20:21.556Z,12.93
2023-03-18T18:22:51.593Z,12.40
2023-03-18T18:25:20.395Z,12.70
2023-03-18T18:27:48.002Z,12.75
2023-03-18T18:30:17.776Z,12.73
2023-03-18T18:32:47.253Z,13.88
2023-03-18T18:35:17.756Z,13.85
2023-03-18T18:37:44.831Z,14.70
2023-03-18T18:40:13.591Z,14.38
2023-03-18T18:42:41.951Z,14.67
2023-03-18T18:45:10.621Z,14.77
2023-03-18T18:47:38.497Z,14.70
2023-03-18T18:50:06.311Z,14.95
2023-03-18T18:52:34.024Z,15.05
2023-03-18T18:55:00.596Z,16.20
2023-03-18T18:57:29.266Z,15.88
2023-03-18T18:59:56.657Z,15.13
2023-03-18T19:02:38.392Z,16.38
2023-03-18T19:05:05.507Z,15.93
2023-03-18T19:07:33.586Z,16.87
2023-03-18T19:10:00.325Z,15.98
2023-03-18T19:12:27.638Z,16.02
2023-03-18T19:14:54.593Z,14.68
2023-03-18T19:17:21.926Z,14.82
2023-03-18T19:19:49.108Z,15.47
2023-03-18T19:22:17.637Z,14.50
2023-03-18T19:24:48.132Z,14.30
2023-03-18T19:27:19.837Z,13.32
2023-03-18T19:29:47.261Z,15.95
2023-03-18T19:32:24.161Z,15.20
2023-03-18T19:34:52.138Z,16.85
2023-03-18T19:37:32.405Z,15.50
2023-03-18T19:40:00.650Z,15.43
2023-03-18T19:42:27.309Z,14.90
2023-03-18T19:44:54.326Z,15.63
2023-03-18T19:47:23.544Z,14.60
2023-03-18T19:49:50.186Z,15.43
2023-03-18T19:52:24.236Z,15.75
2023-03-18T19:54:51.508Z,17.10
2023-03-18T19:57:24.783Z,16.17
2023-03-18T19:59:53.101Z,16.05
2023-03-18T20:02:26.725Z,16.85
2023-03-18T20:04:55.077Z,16.08
2023-03-18T20:07:24.332Z,16.60
2023-03-18T20:09:51.302Z,14.87
2023-03-18T20:12:41.265Z,16.25
2023-03-18T20:15:13.903Z,15.63
2023-03-18T20:17:45.641Z,17.42
2023-03-18T20:20:20.628Z,15.50
2023-03-18T20:23:08.180Z,16.27
2023-03-18T20:25:37.364Z,16.17
2023-03-18T20:28:05.165Z,15.80
2023-03-18T20:30:37.724Z,15.57
2023-03-18T20:33:04.828Z,16.00
2023-03-18T20:35:34.100Z,14.77
2023-03-18T20:38:04.906Z,14.75
2023-03-18T20:40:31.745Z,14.57
2023-03-18T20:42:58.328Z,14.85
2023-03-18T20:45:25.095Z,15.02
2023-03-18T20:47:51.726Z,14.03
2023-03-18T20:50:24.620Z,14.65
2023-03-18T20:52:51.658Z,13.75
2023-03-18T20:55:34.369Z,13.88
2023-03-18T20:58:01.914Z,14.18
2023-03-18T21:00:31.728Z,14.60
2023-03-18T21:02:59.262Z,14.18
2023-03-18T21:05:26.536Z,13.68
2023-03-18T21:07:53.419Z,14.05
2023-03-18T21:10:22.556Z,14.38
2023-03-18T21:12:49.747Z,15.23
2023-03-18T21:15:22.868Z,15.15
2023-03-18T21:17:50.035Z,15.63
2023-03-18T21:20:24.019Z,16.85
2023-03-18T21:22:50.955Z,16.02
2023-03-18T21:25:20.184Z,16.53
2023-03-18T21:27:47.336Z,16.98
2023-03-18T21:30:15.338Z,18.20
2023-03-18T21:32:42.625Z,19.42
2023-03-18T21:35:21.719Z,18.98
2023-03-18T21:37:48.345Z,20.40
2023-03-18T21:40:21.741Z,21.10
2023-03-18T21:42:49.307Z,20.27
2023-03-18T21:45:19.153Z,19.73
2023-03-18T21:47:45.969Z,19.63
2023-03-18T21:50:18.590Z,18.47
2023-03-18T21:52:46.286Z,16.15
2023-03-18T21:55:14.180Z,16.10
2023-03-18T21:57:40.743Z,14.98
2023-03-18T22:00:08.030Z,15.85
2023-03-18T22:02:36.683Z,14.67
2023-03-18T22:05:07.657Z,15.00
2023-03-18T22:07:34.251Z,14.70
2023-03-18T22:10:01.135Z,14.45
2023-03-18T22:12:29.914Z,13.10
2023-03-18T22:14:57.410Z,13.73
2023-03-18T22:17:29.033Z,15.82
2023-03-18T22:19:56.816Z,14.27
2023-03-18T22:22:26.226Z,15.48
2023-03-18T22:24:53.128Z,14.98
2023-03-18T22:27:26.558Z,14.57
2023-03-18T22:29:54.625Z,15.30
2023-03-18T22:32:43.330Z,13.45
2023-03-18T22:35:20.726Z,14.02
2023-03-18T22:37:47.686Z,13.18
2023-03-18T22:40:25.886Z,13.70
2023-03-18T22:43:00.402Z,14.57
2023-03-18T22:45:29.514Z,14.98
2023-03-18T22:47:58.047Z,13.88
2023-03-18T22:50:26.810Z,14.63
2023-03-18T22:52:58.719Z,13.50
2023-03-18T22:55:26.676Z,14.18
2023-03-18T22:57:53.177Z,14.20
2023-03-18T23:00:25.864Z,13.65
2023-03-18T23:02:53.337Z,12.45
2023-03-18T23:05:23.462Z,12.63
2023-03-18T23:07:50.923Z,12.77
2023-03-18T23:10:18.013Z,12.82
2023-03-18T23:12:44.688Z,12.88
2023-03-18T23:15:19.972Z,12.55
2023-03-18T23:17:46.860Z,12.43
2023-03-18T23:20:14.828Z,11.98
2023-03-18T23:22:41.908Z,13.02
2023-03-18T23:25:13.539Z,13.32
2023-03-18T23:27:40.029Z,12.90
2023-03-18T23:30:07.220Z,12.67
2023-03-18T23:32:35.339Z,12.77
2023-03-18T23:35:02.021Z,12.95
2023-03-18T23:37:28.525Z,12.98
2023-03-18T23:39:55.116Z,12.82
2023-03-18T23:42:21.646Z,13.17
2023-03-18T23:44:49.023Z,13.30
2023-03-18T23:47:16.493Z,14.10
2023-03-18T23:49:43.270Z,13.23
2023-03-18T23:52:12.102Z,12.90
2023-03-18T23:54:39.393Z,13.47
2023-03-18T23:57:08.116Z,12.23
2023-03-18T23:59:34.838Z,12.70
